Time;durP1;ratioP1;P1;durP2;ratioP2;P2;SDS_P1;SDS_P2;PMS_P1;PMS_P2;Temp;Humidity;BMP_temperature;BMP_pressure;BME280_temperature;BME280_humidity;BME280_pressure;Samples;Min_cycle;Max_cycle;Signal;HPM_P1;HPM_P2
2022/04/05 00:01:24;;;;;;;25.13;12.77;;;10.70;99.90;;;;;;5053866;28;20174;-83
2022/04/05 00:03:49;;;;;;;32.97;13.13;;;10.70;99.90;;;;;;5054182;28;20532;-87
2022/04/05 00:06:15;;;;;;;20.52;11.73;;;10.70;99.90;;;;;;5054601;28;20174;-83
2022/04/05 00:08:40;;;;;;;23.27;11.38;;;10.80;99.90;;;;;;5054663;28;20187;-90
2022/04/05 00:11:06;;;;;;;33.47;13.43;;;10.80;99.90;;;;;;5052944;28;20948;-85
2022/04/05 00:13:32;;;;;;;21.17;13.40;;;10.80;99.90;;;;;;5054588;28;20171;-88
2022/04/05 00:15:57;;;;;;;24.23;12.15;;;10.80;99.90;;;;;;5053971;28;20207;-80
2022/04/05 00:18:23;;;;;;;17.75;12.68;;;10.80;99.90;;;;;;5055066;28;20640;-86
2022/04/05 00:20:48;;;;;;;29.58;11.82;;;10.80;99.90;;;;;;5057366;28;20174;-90
2022/04/05 00:23:15;;;;;;;26.73;12.60;;;10.70;99.90;;;;;;5056845;28;20167;-86
2022/04/05 00:25:41;;;;;;;20.42;12.55;;;10.70;99.90;;;;;;5056976;28;20171;-87
2022/04/05 00:28:06;;;;;;;28.33;11.88;;;10.80;99.90;;;;;;5057077;28;20179;-84
2022/04/05 00:30:32;;;;;;;18.75;10.85;;;10.80;99.90;;;;;;5055595;28;20174;-86
2022/04/05 00:32:58;;;;;;;20.13;11.27;;;10.80;99.90;;;;;;5055433;28;20167;-84
2022/04/05 00:35:23;;;;;;;20.95;11.95;;;10.80;99.90;;;;;;5052891;28;20230;-89
2022/04/05 00:37:50;;;;;;;23.65;12.05;;;10.80;99.90;;;;;;5054185;28;20216;-89
2022/04/05 00:40:15;;;;;;;20.83;12.23;;;10.90;99.90;;;;;;5053909;28;20174;-86
2022/04/05 00:42:42;;;;;;;23.48;10.88;;;10.90;99.90;;;;;;5054452;28;20164;-89
2022/04/05 00:45:09;;;;;;;19.63;10.95;;;11.00;99.90;;;;;;5054249;28;20221;-85
2022/04/05 00:47:36;;;;;;;23.52;11.50;;;11.00;99.90;;;;;;5054379;28;20673;-83
2022/04/05 00:50:03;;;;;;;18.80;12.02;;;10.90;99.90;;;;;;5055035;28;20167;-81
2022/04/05 00:52:29;;;;;;;21.08;10.65;;;10.90;99.90;;;;;;5054180;28;20163;-88
2022/04/05 00:54:58;;;;;;;16.55;11.05;;;10.90;99.90;;;;;;5055303;28;20260;-78
2022/04/05 00:57:24;;;;;;;20.42;11.70;;;10.90;99.90;;;;;;5056705;28;20163;-86
2022/04/05 00:59:55;;;;;;;16.85;10.60;;;11.00;99.90;;;;;;5062772;28;20623;-79
2022/04/05 01:02:22;;;;;;;29.20;11.68;;;11.00;99.90;;;;;;5056229;28;20163;-80
2022/04/05 01:04:49;;;;;;;18.77;11.23;;;11.00;99.90;;;;;;5053413;28;20163;-81
2022/04/05 01:07:22;;;;;;;19.20;11.25;;;10.90;99.90;;;;;;5052197;28;20612;-78
2022/04/05 01:09:53;;;;;;;19.73;11.30;;;10.90;99.90;;;;;;5053459;28;20167;-84
2022/04/05 01:12:20;;;;;;;21.48;11.38;;;11.00;99.90;;;;;;5053498;28;20170;-82
2022/04/05 01:14:46;;;;;;;23.20;11.73;;;11.00;99.90;;;;;;5053555;28;20652;-85
2022/04/05 01:17:13;;;;;;;21.38;12.10;;;11.10;99.90;;;;;;5053333;28;20166;-81
2022/04/05 01:19:39;;;;;;;28.20;12.43;;;11.20;99.90;;;;;;5053271;28;20199;-85
2022/04/05 01:22:05;;;;;;;22.20;11.82;;;11.20;99.90;;;;;;5053345;28;20182;-81
2022/04/05 01:24:32;;;;;;;29.38;12.85;;;11.20;99.90;;;;;;5057072;28;20167;-88
2022/04/05 01:27:01;;;;;;;18.70;12.18;;;11.20;99.90;;;;;;5057900;28;20261;-89
2022/04/05 01:29:28;;;;;;;21.17;11.27;;;11.10;99.90;;;;;;5057251;28;20198;-80
2022/04/05 01:31:56;;;;;;;25.00;11.38;;;11.20;99.90;;;;;;5057412;28;20164;-79
2022/04/05 01:34:25;;;;;;;21.45;11.05;;;11.20;99.90;;;;;;5056999;28;20191;-83
2022/04/05 01:36:56;;;;;;;15.98;10.43;;;11.10;99.90;;;;;;5057362;28;20651;-87
2022/04/05 01:39:27;;;;;;;22.40;11.80;;;11.10;99.90;;;;;;5057313;28;20187;-89
2022/04/05 01:41:59;;;;;;;22.10;11.80;;;11.10;99.90;;;;;;5057163;28;20198;-85
2022/04/05 01:44:27;;;;;;;20.63;12.23;;;11.20;99.90;;;;;;5057046;28;20167;-88
2022/04/05 01:46:52;;;;;;;21.05;12.60;;;11.20;99.90;;;;;;5056530;28;20655;-82
2022/04/05 01:49:18;;;;;;;19.17;11.15;;;11.30;99.90;;;;;;5056719;28;20202;-87
2022/04/05 01:51:45;;;;;;;17.05;11.65;;;11.30;99.90;;;;;;5055828;28;20254;-88
2022/04/05 01:54:13;;;;;;;31.33;11.85;;;11.30;99.90;;;;;;5057147;28;20175;-84
2022/04/05 01:56:45;;;;;;;16.08;11.43;;;11.30;99.90;;;;;;5057011;28;20175;-78
2022/04/05 01:59:12;;;;;;;19.75;11.48;;;11.30;99.90;;;;;;5056377;28;20183;-88
2022/04/05 02:01:38;;;;;;;24.20;12.30;;;11.30;99.90;;;;;;5056684;28;20174;-90
2022/04/05 02:04:04;;;;;;;32.72;13.15;;;11.30;99.90;;;;;;5057176;28;20163;-89
2022/04/05 02:06:30;;;;;;;21.80;11.50;;;11.40;99.90;;;;;;5056865;28;20167;-87
2022/04/05 02:08:56;;;;;;;29.27;12.40;;;11.40;99.90;;;;;;5056503;28;20179;-89
2022/04/05 02:11:22;;;;;;;18.38;11.52;;;11.30;99.90;;;;;;5056481;28;20160;-79
2022/04/05 02:13:48;;;;;;;20.17;12.10;;;11.30;99.90;;;;;;5056594;28;20246;-88
2022/04/05 02:16:14;;;;;;;30.67;12.82;;;11.40;99.90;;;;;;5054954;28;20302;-89
2022/04/05 02:18:41;;;;;;;25.88;11.73;;;11.30;99.90;;;;;;5056239;28;20187;-84
2022/04/05 02:21:07;;;;;;;22.58;11.52;;;11.30;99.90;;;;;;5056573;28;20172;-81
2022/04/05 02:23:33;;;;;;;20.55;10.93;;;11.30;99.90;;;;;;5055282;28;20168;-79
2022/04/05 02:25:59;;;;;;;23.30;11.05;;;11.30;99.90;;;;;;5056352;28;20566;-88
2022/04/05 02:28:25;;;;;;;32.75;12.80;;;11.30;99.90;;;;;;5056208;28;20536;-88
2022/04/05 02:30:51;;;;;;;30.45;12.43;;;11.40;99.90;;;;;;5056196;28;20170;-85
2022/04/05 02:33:17;;;;;;;22.45;11.50;;;11.40;99.90;;;;;;5056449;28;20171;-78
2022/04/05 02:35:43;;;;;;;23.35;12.38;;;11.40;99.90;;;;;;5055644;28;20256;-84
2022/04/05 02:38:09;;;;;;;22.75;11.90;;;11.40;99.90;;;;;;5055969;28;20210;-88
2022/04/05 02:40:34;;;;;;;16.08;10.57;;;11.50;99.90;;;;;;5056129;28;20175;-88
2022/04/05 02:43:00;;;;;;;19.52;11.10;;;11.40;99.90;;;;;;5055926;28;20271;-87
2022/04/05 02:45:26;;;;;;;23.25;10.88;;;11.40;99.90;;;;;;5055849;28;20171;-79
2022/04/05 02:47:52;;;;;;;19.70;11.45;;;11.40;99.90;;;;;;5058924;28;20679;-81
2022/04/05 02:50:18;;;;;;;14.85;10.63;;;11.50;99.90;;;;;;5055747;28;20595;-89
2022/04/05 02:52:47;;;;;;;27.23;11.80;;;11.40;99.90;;;;;;5055819;28;20202;-88
2022/04/05 02:55:13;;;;;;;16.17;11.02;;;11.60;99.90;;;;;;5056246;28;20206;-84
2022/04/05 02:57:45;;;;;;;17.35;11.00;;;11.60;99.90;;;;;;5059232;28;20183;-81
2022/04/05 03:00:13;;;;;;;21.00;9.68;;;11.50;99.90;;;;;;5063211;28;20171;-80
2022/04/05 03:02:39;;;;;;;28.45;10.57;;;11.40;99.90;;;;;;5064207;28;20173;-79
2022/04/05 03:05:06;;;;;;;19.73;11.35;;;11.50;99.90;;;;;;5061321;28;20163;-89
2022/04/05 03:07:37;;;;;;;22.02;10.98;;;11.30;99.90;;;;;;5060494;28;20286;-79
2022/04/05 03:10:08;;;;;;;19.92;10.98;;;11.30;99.90;;;;;;5056558;28;20167;-82
2022/04/05 03:12:35;;;;;;;24.27;10.88;;;11.40;99.90;;;;;;5056022;28;20251;-78
2022/04/05 03:15:01;;;;;;;17.38;10.75;;;11.30;99.90;;;;;;5055425;28;20221;-89
2022/04/05 03:17:27;;;;;;;21.67;12.68;;;11.30;99.90;;;;;;5054983;28;20163;-89
2022/04/05 03:19:52;;;;;;;17.92;10.48;;;11.50;99.90;;;;;;5055442;28;20171;-89
2022/04/05 03:22:20;;;;;;;22.52;11.18;;;11.40;99.90;;;;;;5055419;28;20250;-79
2022/04/05 03:24:46;;;;;;;22.52;12.55;;;11.50;99.90;;;;;;5055355;28;20171;-79
2022/04/05 03:27:12;;;;;;;17.00;11.10;;;11.60;99.90;;;;;;5053737;28;20217;-84
2022/04/05 03:29:38;;;;;;;18.15;11.20;;;11.50;99.90;;;;;;5055048;28;20631;-87
2022/04/05 03:32:05;;;;;;;21.95;11.40;;;11.50;99.90;;;;;;5060610;28;20159;-77
2022/04/05 03:34:30;;;;;;;17.17;11.02;;;11.50;99.90;;;;;;5066656;28;20243;-78
2022/04/05 03:36:56;;;;;;;25.42;12.10;;;11.50;99.90;;;;;;5069326;28;20194;-88
2022/04/05 03:39:22;;;;;;;22.55;10.77;;;11.60;99.90;;;;;;5069591;28;20266;-89
2022/04/05 03:41:47;;;;;;;23.52;11.07;;;11.50;99.90;;;;;;5059214;28;20168;-80
2022/04/05 03:44:13;;;;;;;19.33;10.88;;;11.50;99.90;;;;;;5057153;28;20180;-90
2022/04/05 03:46:39;;;;;;;24.58;10.27;;;11.50;99.90;;;;;;5056460;28;20232;-83
2022/04/05 03:49:04;;;;;;;20.08;10.48;;;11.50;99.90;;;;;;5056023;28;20183;-89
2022/04/05 03:51:30;;;;;;;24.10;10.35;;;11.50;99.90;;;;;;5064148;28;20159;-81
2022/04/05 03:53:57;;;;;;;21.30;11.68;;;11.50;99.90;;;;;;5062356;28;20666;-82
2022/04/05 03:56:23;;;;;;;23.35;10.15;;;11.70;99.90;;;;;;5053220;28;20697;-82
2022/04/05 03:58:50;;;;;;;19.15;10.95;;;11.50;99.90;;;;;;5057125;28;20237;-87
2022/04/05 04:01:17;;;;;;;24.35;10.65;;;11.50;99.90;;;;;;5057949;28;20195;-90
2022/04/05 04:03:43;;;;;;;31.88;11.85;;;11.50;99.90;;;;;;5057011;28;20186;-84
2022/04/05 04:06:09;;;;;;;17.27;10.93;;;11.50;99.90;;;;;;5054189;28;20171;-83
2022/04/05 04:08:35;;;;;;;19.75;11.23;;;11.50;99.90;;;;;;5056024;28;20705;-78
2022/04/05 04:11:01;;;;;;;22.90;11.32;;;11.60;99.90;;;;;;5055633;28;20225;-83
2022/04/05 04:13:27;;;;;;;16.65;10.50;;;11.50;99.90;;;;;;5055006;28;20214;-79
2022/04/05 04:15:53;;;;;;;21.15;10.20;;;11.60;99.90;;;;;;5057919;28;20549;-84
2022/04/05 04:18:18;;;;;;;15.98;10.57;;;11.60;99.90;;;;;;5059205;28;20218;-86
2022/04/05 04:20:44;;;;;;;19.77;11.35;;;11.60;99.90;;;;;;5066811;28;20209;-81
2022/04/05 04:23:11;;;;;;;20.33;10.23;;;11.50;99.90;;;;;;5067644;28;20167;-84
2022/04/05 04:25:37;;;;;;;19.50;10.65;;;11.50;99.90;;;;;;5062003;28;20175;-79
2022/04/05 04:28:10;;;;;;;24.38;10.05;;;11.50;99.90;;;;;;5068490;28;20190;-85
2022/04/05 04:30:37;;;;;;;24.05;11.48;;;11.50;99.90;;;;;;5056635;28;20186;-78
2022/04/05 04:33:04;;;;;;;19.33;11.30;;;11.50;99.90;;;;;;5055478;28;20171;-88
2022/04/05 04:35:30;;;;;;;14.50;10.60;;;11.50;99.90;;;;;;5054356;28;20364;-85
2022/04/05 04:37:58;;;;;;;15.82;11.00;;;11.40;99.90;;;;;;5060454;28;20206;-88
2022/04/05 04:40:24;;;;;;;23.92;11.25;;;11.40;99.90;;;;;;5055646;28;20195;-86
2022/04/05 04:42:50;;;;;;;19.08;10.98;;;11.50;99.90;;;;;;5056611;28;20195;-81
2022/04/05 04:45:16;;;;;;;18.27;10.73;;;11.50;99.90;;;;;;5058138;28;20171;-88
2022/04/05 04:47:41;;;;;;;28.38;10.85;;;11.50;99.90;;;;;;5055107;28;20205;-83
2022/04/05 04:50:11;;;;;;;13.43;10.90;;;11.50;99.90;;;;;;5054456;28;20255;-82
2022/04/05 04:52:38;;;;;;;17.45;10.68;;;11.40;99.90;;;;;;5053371;28;20178;-78
2022/04/05 04:55:09;;;;;;;14.52;10.90;;;11.30;99.90;;;;;;5052741;28;20253;-79
2022/04/05 04:57:35;;;;;;;20.40;11.25;;;11.40;99.90;;;;;;5054702;28;20189;-79
2022/04/05 05:00:00;;;;;;;16.10;10.30;;;11.40;99.90;;;;;;5053288;28;20198;-84
2022/04/05 05:02:26;;;;;;;21.20;11.27;;;11.30;99.90;;;;;;5052317;28;20228;-88
2022/04/05 05:04:55;;;;;;;15.18;10.10;;;11.40;99.90;;;;;;5058493;28;20164;-78
2022/04/05 05:07:20;;;;;;;20.63;11.60;;;11.40;99.90;;;;;;5054272;28;20175;-81
2022/04/05 05:09:46;;;;;;;20.38;11.30;;;11.40;99.90;;;;;;5053398;28;20171;-78
2022/04/05 05:12:11;;;;;;;16.13;10.48;;;11.30;99.90;;;;;;5053899;28;20687;-88
2022/04/05 05:14:37;;;;;;;16.02;10.20;;;11.30;99.90;;;;;;5053871;28;20206;-78
2022/04/05 05:17:04;;;;;;;18.40;10.48;;;11.30;99.90;;;;;;5053744;28;20166;-82
2022/04/05 05:19:29;;;;;;;15.93;11.32;;;11.40;99.90;;;;;;5053013;28;20647;-89
2022/04/05 05:21:55;;;;;;;12.32;9.82;;;11.50;99.90;;;;;;5053312;28;20185;-86
2022/04/05 05:24:21;;;;;;;20.05;10.13;;;11.50;99.90;;;;;;5056556;28;20253;-85
2022/04/05 05:26:47;;;;;;;14.05;9.40;;;11.50;99.90;;;;;;5053195;28;20198;-87
2022/04/05 05:29:13;;;;;;;15.02;10.32;;;11.50;99.90;;;;;;5059081;28;20229;-82
2022/04/05 05:31:39;;;;;;;16.67;10.85;;;11.60;99.90;;;;;;5054306;28;20615;-78
2022/04/05 05:34:04;;;;;;;12.80;9.90;;;11.60;99.90;;;;;;5053014;28;20259;-81
2022/04/05 05:36:30;;;;;;;11.50;10.23;;;11.60;99.90;;;;;;5051926;28;20273;-78
2022/04/05 05:38:56;;;;;;;15.02;9.88;;;11.50;99.90;;;;;;5053138;28;20187;-88
2022/04/05 05:41:21;;;;;;;14.70;10.02;;;11.50;99.90;;;;;;5052288;28;20183;-78
2022/04/05 05:43:48;;;;;;;14.07;9.45;;;11.60;99.90;;;;;;5053356;28;20159;-85
2022/04/05 05:46:14;;;;;;;18.05;9.82;;;11.60;99.90;;;;;;5052571;28;20179;-85
2022/04/05 05:48:41;;;;;;;23.30;10.63;;;11.60;99.90;;;;;;5053116;28;20183;-85
2022/04/05 05:51:07;;;;;;;19.52;9.38;;;11.70;99.90;;;;;;5053085;28;20152;-84
2022/04/05 05:53:33;;;;;;;13.77;10.55;;;11.70;99.90;;;;;;5053017;28;20292;-79
2022/04/05 05:55:59;;;;;;;14.70;8.65;;;11.80;99.90;;;;;;5053049;28;20284;-88
2022/04/05 05:58:25;;;;;;;23.52;8.90;;;11.80;99.90;;;;;;5052566;28;20175;-78
2022/04/05 06:00:51;;;;;;;12.35;9.65;;;11.80;99.90;;;;;;5052885;28;20171;-77
2022/04/05 06:03:17;;;;;;;14.90;10.60;;;11.80;99.90;;;;;;5052826;28;20215;-78
2022/04/05 06:05:43;;;;;;;14.00;9.45;;;11.90;99.90;;;;;;5052876;28;20171;-85
2022/04/05 06:08:09;;;;;;;14.30;9.70;;;11.90;99.90;;;;;;5052538;28;20183;-82
2022/04/05 06:10:35;;;;;;;13.57;9.35;;;11.90;99.90;;;;;;5054821;28;20271;-83
2022/04/05 06:13:01;;;;;;;20.02;9.32;;;11.90;99.90;;;;;;5055485;28;20254;-84
2022/04/05 06:15:28;;;;;;;10.90;9.07;;;11.90;99.90;;;;;;5055342;28;20572;-78
2022/04/05 06:17:54;;;;;;;13.25;9.38;;;11.90;99.90;;;;;;5057987;28;20686;-81
2022/04/05 06:20:21;;;;;;;11.70;9.13;;;11.90;99.90;;;;;;5058639;28;20324;-78
2022/04/05 06:22:49;;;;;;;14.25;9.45;;;11.90;99.90;;;;;;5056559;28;20167;-79
2022/04/05 06:25:17;;;;;;;10.10;9.13;;;12.00;99.90;;;;;;5056956;28;20249;-79
2022/04/05 06:27:43;;;;;;;14.13;10.20;;;12.00;99.90;;;;;;5056205;28;20179;-81
2022/04/05 06:30:11;;;;;;;12.30;9.70;;;11.90;99.90;;;;;;5054483;28;20514;-86
2022/04/05 06:32:37;;;;;;;10.65;9.60;;;11.90;99.90;;;;;;5055471;28;20159;-80
2022/04/05 06:35:04;;;;;;;13.65;9.52;;;12.00;99.90;;;;;;5055497;28;20625;-86
2022/04/05 06:37:30;;;;;;;14.18;9.30;;;11.90;99.90;;;;;;5055440;28;20526;-78
2022/04/05 06:39:56;;;;;;;17.42;10.50;;;11.90;99.90;;;;;;5056064;28;20171;-79
2022/04/05 06:42:22;;;;;;;16.70;9.27;;;11.90;99.90;;;;;;5060519;28;20237;-78
2022/04/05 06:44:47;;;;;;;13.02;10.18;;;11.90;99.90;;;;;;5071742;28;20159;-81
2022/04/05 06:47:13;;;;;;;12.75;9.77;;;12.00;99.90;;;;;;5076404;28;20183;-78
2022/04/05 06:49:38;;;;;;;12.10;9.40;;;12.10;99.90;;;;;;5057045;28;20182;-86
2022/04/05 06:52:04;;;;;;;14.90;11.27;;;12.10;99.90;;;;;;5056374;28;20209;-78
2022/04/05 06:54:30;;;;;;;14.27;10.07;;;12.10;99.90;;;;;;5055824;28;20198;-85
2022/04/05 06:56:57;;;;;;;13.73;10.27;;;12.00;99.90;;;;;;5056115;28;20183;-78
2022/04/05 06:59:22;;;;;;;11.98;10.30;;;11.90;99.90;;;;;;5057141;28;20186;-79
2022/04/05 07:01:48;;;;;;;13.25;10.93;;;11.90;99.90;;;;;;5055454;28;20257;-79
2022/04/05 07:04:13;;;;;;;12.45;8.77;;;11.90;99.90;;;;;;5055534;28;20514;-80
2022/04/05 07:06:39;;;;;;;15.35;10.63;;;12.00;99.90;;;;;;5055554;28;20171;-85
2022/04/05 07:09:05;;;;;;;14.13;9.43;;;12.10;99.90;;;;;;5055044;28;20186;-85
2022/04/05 07:11:31;;;;;;;12.77;10.10;;;12.10;99.90;;;;;;5055827;28;20164;-85
2022/04/05 07:13:57;;;;;;;13.02;9.20;;;12.20;99.90;;;;;;5055236;28;20171;-84
2022/04/05 07:16:23;;;;;;;11.88;9.27;;;12.20;99.90;;;;;;5054585;28;20217;-77
2022/04/05 07:18:49;;;;;;;12.60;10.40;;;12.40;99.90;;;;;;5054584;28;20187;-86
2022/04/05 07:21:15;;;;;;;12.77;10.10;;;12.30;99.90;;;;;;5054638;28;20166;-84
2022/04/05 07:23:41;;;;;;;15.38;9.27;;;12.30;99.90;;;;;;5055107;28;20187;-89
2022/04/05 07:26:07;;;;;;;13.90;9.77;;;12.30;99.90;;;;;;5055364;28;20171;-78
2022/04/05 07:28:33;;;;;;;9.55;8.52;;;12.20;99.90;;;;;;5054683;28;20209;-80
2022/04/05 07:30:58;;;;;;;14.20;8.82;;;12.30;99.90;;;;;;5055027;28;20258;-81
2022/04/05 07:33:24;;;;;;;11.10;9.18;;;12.20;99.90;;;;;;5053086;28;20210;-80
2022/04/05 07:35:50;;;;;;;9.60;7.90;;;12.30;99.90;;;;;;5054784;28;20206;-82
2022/04/05 07:38:17;;;;;;;11.98;7.30;;;12.50;99.90;;;;;;5053346;28;20191;-79
2022/04/05 07:40:49;;;;;;;9.32;8.30;;;12.50;99.90;;;;;;5054470;28;20163;-85
2022/04/05 07:43:20;;;;;;;11.10;7.93;;;12.70;99.90;;;;;;5055039;28;20178;-84
2022/04/05 07:45:48;;;;;;;8.35;7.53;;;12.50;99.90;;;;;;5053680;28;20167;-83
2022/04/05 07:48:19;;;;;;;8.27;7.57;;;12.50;99.90;;;;;;5055452;28;20203;-82
2022/04/05 07:50:44;;;;;;;9.18;8.00;;;12.60;99.90;;;;;;5059140;28;20176;-83
2022/04/05 07:53:11;;;;;;;10.40;8.02;;;12.60;99.90;;;;;;5061576;28;20236;-79
2022/04/05 07:55:36;;;;;;;11.00;8.23;;;12.50;99.90;;;;;;5067743;28;20226;-79
2022/04/05 07:58:02;;;;;;;15.80;7.35;;;12.70;99.90;;;;;;5069433;28;20198;-81
2022/04/05 08:00:28;;;;;;;9.60;8.65;;;12.80;99.90;;;;;;5068196;28;20194;-81
2022/04/05 08:02:54;;;;;;;10.60;8.25;;;12.70;99.90;;;;;;5066634;28;20608;-82
2022/04/05 08:05:19;;;;;;;8.60;7.78;;;12.60;99.90;;;;;;5060619;28;20246;-86
2022/04/05 08:07:46;;;;;;;10.57;8.68;;;12.60;99.90;;;;;;5059513;28;20199;-80
2022/04/05 08:10:13;;;;;;;9.57;8.23;;;12.80;99.90;;;;;;5054343;28;20172;-87
2022/04/05 08:12:44;;;;;;;9.30;8.10;;;12.70;99.90;;;;;;5053372;28;20173;-85
2022/04/05 08:15:16;;;;;;;10.02;8.20;;;12.80;99.90;;;;;;5053491;28;20213;-79
2022/04/05 08:17:42;;;;;;;9.48;7.22;;;12.80;99.90;;;;;;5053782;28;20270;-84
2022/04/05 08:20:08;;;;;;;9.50;7.82;;;12.80;99.90;;;;;;5052756;28;20267;-83
2022/04/05 08:22:34;;;;;;;8.52;7.68;;;12.70;99.90;;;;;;5051824;28;20639;-83
2022/04/05 08:25:00;;;;;;;9.82;7.05;;;12.90;99.90;;;;;;5052087;28;20190;-78
2022/04/05 08:27:26;;;;;;;8.57;7.78;;;13.10;99.90;;;;;;5050649;28;20193;-81
2022/04/05 08:29:51;;;;;;;12.48;6.53;;;13.20;99.90;;;;;;5051003;28;20175;-82
2022/04/05 08:32:17;;;;;;;6.93;6.22;;;13.40;99.90;;;;;;5033108;28;20251;-80
2022/04/05 08:34:45;;;;;;;11.88;6.68;;;13.10;99.90;;;;;;5052253;28;20221;-78
2022/04/05 08:37:11;;;;;;;7.40;6.65;;;13.00;99.90;;;;;;5050068;28;20632;-78
2022/04/05 08:39:37;;;;;;;8.23;5.85;;;13.00;99.90;;;;;;5052262;28;20209;-83
2022/04/05 08:42:04;;;;;;;10.80;6.90;;;12.90;99.90;;;;;;5051716;28;20175;-81
2022/04/05 08:44:30;;;;;;;7.55;6.03;;;12.80;99.90;;;;;;5052249;28;20201;-80
2022/04/05 08:46:59;;;;;;;7.00;6.40;;;13.00;99.90;;;;;;5052613;28;20191;-85
2022/04/05 08:49:26;;;;;;;13.15;7.05;;;13.20;99.90;;;;;;5052168;28;20265;-79
2022/04/05 08:51:52;;;;;;;6.65;6.05;;;13.40;99.90;;;;;;5052803;28;20174;-79
2022/04/05 08:54:23;;;;;;;9.23;6.45;;;13.40;99.90;;;;;;5044555;28;20167;-80
2022/04/05 08:56:50;;;;;;;6.75;5.55;;;13.50;99.90;;;;;;5050609;28;20689;-86
2022/04/05 08:59:15;;;;;;;6.78;6.18;;;13.50;99.90;;;;;;5050560;28;20286;-77
2022/04/05 09:01:41;;;;;;;6.22;5.72;;;13.50;99.90;;;;;;5051364;28;20244;-80
2022/04/05 09:04:07;;;;;;;6.80;5.70;;;13.30;99.90;;;;;;5051671;28;20525;-79
2022/04/05 09:06:34;;;;;;;7.22;5.88;;;13.30;99.90;;;;;;5050844;28;20186;-80
2022/04/05 09:09:11;;;;;;;9.15;6.03;;;13.30;99.90;;;;;;5051729;28;20659;-81
2022/04/05 09:11:46;;;;;;;8.15;5.22;;;13.30;99.90;;;;;;5049490;28;20178;-83
2022/04/05 09:14:12;;;;;;;6.28;5.78;;;13.30;99.90;;;;;;5052056;28;20181;-83
2022/04/05 09:16:38;;;;;;;9.65;6.40;;;13.30;99.90;;;;;;5051235;28;20583;-84
2022/04/05 09:19:14;;;;;;;7.80;6.43;;;13.30;99.90;;;;;;5052002;28;20655;-80
2022/04/05 09:21:50;;;;;;;6.72;6.13;;;13.30;99.90;;;;;;5046189;28;20217;-80
2022/04/05 09:24:16;;;;;;;11.07;6.65;;;13.20;99.90;;;;;;5052310;28;20174;-78
2022/04/05 09:26:43;;;;;;;5.40;4.97;;;13.30;99.90;;;;;;5052714;28;20171;-78
2022/04/05 09:29:10;;;;;;;8.45;5.50;;;13.30;99.90;;;;;;5065510;28;20193;-79
2022/04/05 09:31:48;;;;;;;5.50;5.10;;;13.40;99.90;;;;;;5066675;28;20222;-80
2022/04/05 09:34:17;;;;;;;6.65;5.80;;;13.50;99.90;;;;;;5053510;28;20171;-80
2022/04/05 09:36:49;;;;;;;9.27;4.78;;;13.70;99.90;;;;;;5052845;28;20226;-81
2022/04/05 09:39:24;;;;;;;5.95;5.28;;;14.00;99.90;;;;;;5052078;28;20195;-80
2022/04/05 09:42:03;;;;;;;9.77;5.68;;;14.10;99.90;;;;;;5042638;28;20215;-79
2022/04/05 09:44:32;;;;;;;5.35;4.85;;;14.20;99.90;;;;;;5054651;28;20213;-79
2022/04/05 09:47:08;;;;;;;6.72;5.22;;;14.10;99.90;;;;;;5055669;28;20179;-82
2022/04/05 09:49:40;;;;;;;5.50;5.00;;;13.90;99.90;;;;;;5055907;28;20197;-80
2022/04/05 09:52:30;;;;;;;6.07;5.57;;;14.00;99.90;;;;;;5055514;28;20218;-81
2022/04/05 09:55:09;;;;;;;5.47;4.97;;;14.20;99.90;;;;;;5056543;28;20217;-87
2022/04/05 09:57:35;;;;;;;7.95;5.15;;;14.30;99.90;;;;;;5055142;28;20224;-82
2022/04/05 10:00:19;;;;;;;6.18;4.57;;;14.20;99.90;;;;;;5051556;28;20179;-80
2022/04/05 10:03:04;;;;;;;5.18;4.70;;;14.00;99.90;;;;;;5055929;28;20189;-80
2022/04/05 10:05:31;;;;;;;6.93;5.13;;;13.70;99.90;;;;;;5058601;28;20163;-79
2022/04/05 10:07:57;;;;;;;6.15;5.55;;;13.50;99.90;;;;;;5055227;28;20214;-80
2022/04/05 10:10:23;;;;;;;5.68;5.28;;;13.40;99.90;;;;;;5055419;28;20167;-79
2022/04/05 10:12:50;;;;;;;6.18;5.57;;;13.40;99.90;;;;;;5056377;28;20174;-81
2022/04/05 10:15:15;;;;;;;6.75;6.10;;;13.40;99.90;;;;;;5054325;28;20311;-79
2022/04/05 10:17:44;;;;;;;7.22;5.47;;;13.30;99.90;;;;;;5056488;28;20652;-78
2022/04/05 10:20:11;;;;;;;8.70;6.35;;;13.40;99.90;;;;;;5055093;28;20177;-79
2022/04/05 10:22:39;;;;;;;10.18;7.10;;;13.40;99.90;;;;;;5061455;28;20175;-78
2022/04/05 10:25:06;;;;;;;6.82;5.78;;;13.50;99.90;;;;;;5057835;28;20201;-79
2022/04/05 10:27:32;;;;;;;6.65;5.50;;;13.60;99.90;;;;;;5056943;28;20294;-86
2022/04/05 10:30:10;;;;;;;5.40;4.45;;;13.50;99.90;;;;;;5056886;28;20648;-78
2022/04/05 10:32:51;;;;;;;8.18;5.53;;;13.30;99.90;;;;;;5057910;28;20173;-80
2022/04/05 10:35:23;;;;;;;9.32;7.07;;;13.40;99.90;;;;;;5057886;28;20214;-79
2022/04/05 10:37:51;;;;;;;5.20;4.70;;;13.60;99.90;;;;;;5057912;28;20258;-79
2022/04/05 10:40:20;;;;;;;10.88;5.28;;;13.50;99.90;;;;;;5055419;28;20266;-80
2022/04/05 10:42:52;;;;;;;5.10;4.70;;;13.80;99.90;;;;;;5055062;28;20189;-78
2022/04/05 10:45:25;;;;;;;5.22;4.70;;;13.90;99.90;;;;;;5055717;28;20194;-77
2022/04/05 10:48:01;;;;;;;4.93;4.53;;;14.00;99.90;;;;;;5055150;28;20211;-78
2022/04/05 10:50:27;;;;;;;5.68;5.25;;;14.00;99.90;;;;;;5055041;28;20175;-80
2022/04/05 10:53:11;;;;;;;6.10;5.35;;;14.00;99.90;;;;;;5056915;28;20557;-77
2022/04/05 10:56:11;;;;;;;7.10;4.70;;;14.00;99.90;;;;;;5057258;28;20306;-79
2022/04/05 10:58:47;;;;;;;4.68;4.38;;;14.10;99.90;;;;;;5066231;28;20228;-85
2022/04/05 11:01:22;;;;;;;4.93;4.43;;;14.10;99.90;;;;;;5057625;28;20266;-77
2022/04/05 11:04:12;;;;;;;6.40;5.75;;;14.10;99.90;;;;;;5057531;28;20181;-79
2022/04/05 11:06:59;;;;;;;5.45;5.05;;;14.10;99.90;;;;;;5065841;28;20167;-79
2022/04/05 11:09:26;;;;;;;5.32;4.88;;;14.30;99.90;;;;;;5054647;28;20191;-79
2022/04/05 11:11:53;;;;;;;5.53;5.03;;;14.40;99.90;;;;;;5055957;28;20233;-80
2022/04/05 11:14:38;;;;;;;10.50;5.22;;;14.50;99.90;;;;;;5055143;28;20246;-87
2022/04/05 11:17:08;;;;;;;5.15;4.68;;;14.60;99.90;;;;;;5065678;28;20183;-79
2022/04/05 11:19:36;;;;;;;5.50;5.00;;;14.70;99.90;;;;;;5057475;28;20219;-78
2022/04/05 11:22:23;;;;;;;7.40;5.50;;;14.70;99.90;;;;;;5056056;28;20608;-85
2022/04/05 11:24:53;;;;;;;12.68;6.03;;;14.70;99.90;;;;;;5044782;28;20179;-79
2022/04/05 11:27:34;;;;;;;4.65;4.25;;;14.70;99.90;;;;;;5054290;28;20626;-80
2022/04/05 11:30:26;;;;;;;4.35;3.88;;;14.80;99.90;;;;;;5055414;28;20254;-82
2022/04/05 11:33:14;;;;;;;4.18;3.72;;;14.90;99.90;;;;;;5057079;28;20715;-78
2022/04/05 11:35:45;;;;;;;4.72;4.25;;;14.70;99.90;;;;;;5058679;28;20226;-79
2022/04/05 11:38:17;;;;;;;4.38;3.88;;;14.90;99.90;;;;;;5056019;28;20195;-82
2022/04/05 11:40:47;;;;;;;4.15;3.75;;;15.10;99.90;;;;;;5055437;28;20186;-78
2022/04/05 11:43:21;;;;;;;4.13;3.47;;;15.20;99.90;;;;;;5056723;28;20170;-77
2022/04/05 11:45:48;;;;;;;4.57;3.95;;;15.10;99.90;;;;;;5055981;28;20171;-82
2022/04/05 11:48:21;;;;;;;4.22;3.10;;;15.30;99.90;;;;;;5057262;28;20195;-85
2022/04/05 11:50:49;;;;;;;3.60;3.30;;;15.10;99.90;;;;;;5055590;28;20179;-90
2022/04/05 11:53:22;;;;;;;3.58;3.28;;;15.10;99.90;;;;;;5055646;28;20159;-79
2022/04/05 11:56:17;;;;;;;3.45;3.20;;;14.90;99.90;;;;;;5054547;28;20213;-78
2022/04/05 11:58:52;;;;;;;3.25;2.95;;;14.70;99.90;;;;;;5054613;28;20179;-80
2022/04/05 12:01:25;;;;;;;3.85;3.55;;;14.50;99.90;;;;;;5054822;28;20166;-80
2022/04/05 12:03:58;;;;;;;3.40;3.17;;;14.30;99.90;;;;;;5062544;28;20167;-78
2022/04/05 12:06:32;;;;;;;3.50;3.30;;;14.40;99.90;;;;;;5071666;28;20257;-79
2022/04/05 12:09:00;;;;;;;3.92;3.63;;;14.60;99.90;;;;;;5065505;28;20191;-86
2022/04/05 12:11:30;;;;;;;3.97;3.17;;;14.90;99.90;;;;;;5057390;28;20242;-81
2022/04/05 12:14:09;;;;;;;3.17;2.92;;;14.90;99.90;;;;;;5057263;28;20546;-80
2022/04/05 12:16:59;;;;;;;3.10;2.90;;;15.00;99.90;;;;;;5056634;28;20203;-80
2022/04/05 12:19:39;;;;;;;3.40;3.10;;;15.20;99.90;;;;;;5060800;28;20191;-80
2022/04/05 12:22:08;;;;;;;5.88;3.50;;;15.30;99.90;;;;;;5072717;28;20576;-86
2022/04/05 12:24:36;;;;;;;5.53;3.13;;;15.20;99.90;;;;;;5070552;28;20171;-88
2022/04/05 12:27:04;;;;;;;4.00;3.17;;;15.40;99.90;;;;;;5069973;28;20187;-79
2022/04/05 12:29:31;;;;;;;4.03;3.72;;;15.20;99.90;;;;;;5056269;28;20214;-78
2022/04/05 12:32:13;;;;;;;3.88;3.45;;;15.30;99.90;;;;;;5053948;28;20155;-78
2022/04/05 12:34:40;;;;;;;6.25;3.20;;;15.20;99.90;;;;;;5053012;28;20171;-83
2022/04/05 12:37:12;;;;;;;4.07;3.47;;;15.10;99.90;;;;;;5053111;28;20167;-78
2022/04/05 12:39:46;;;;;;;3.10;2.55;;;15.00;99.90;;;;;;5053254;28;20171;-80
2022/04/05 12:42:12;;;;;;;3.78;3.15;;;15.10;99.90;;;;;;5053373;28;20624;-79